sensor_id;sensor_type;location;lat;lon;timestamp;temperature;humidity
23259;DHT22;11798;51.528;7.240;2022-08-19T00:00:08;18.90;99.90
23259;DHT22;11798;51.528;7.240;2022-08-19T00:02:35;18.90;99.90
23259;DHT22;11798;51.528;7.240;2022-08-19T00:05:01;18.90;99.90
23259;DHT22;11798;51.528;7.240;2022-08-19T00:07:27;18.90;99.90
23259;DHT22;11798;51.528;7.240;2022-08-19T00:09:52;18.90;99.90
23259;DHT22;11798;51.528;7.240;2022-08-19T00:12:19;18.80;99.90
23259;DHT22;11798;51.528;7.240;2022-08-19T00:14:45;18.80;99.90
23259;DHT22;11798;51.528;7.240;2022-08-19T00:17:10;18.80;99.90
23259;DHT22;11798;51.528;7.240;2022-08-19T00:19:36;18.80;99.90
23259;DHT22;11798;51.528;7.240;2022-08-19T00:22:02;18.80;99.90
23259;DHT22;11798;51.528;7.240;2022-08-19T00:24:29;18.70;99.90
23259;DHT22;11798;51.528;7.240;2022-08-19T00:26:55;18.70;99.90
23259;DHT22;11798;51.528;7.240;2022-08-19T00:29:23;18.70;99.90
23259;DHT22;11798;51.528;7.240;2022-08-19T00:31:50;18.70;99.90
23259;DHT22;11798;51.528;7.240;2022-08-19T00:34:19;18.70;99.90
23259;DHT22;11798;51.528;7.240;2022-08-19T00:36:45;18.60;99.90
23259;DHT22;11798;51.528;7.240;2022-08-19T00:39:12;18.60;99.90
23259;DHT22;11798;51.528;7.240;2022-08-19T00:41:38;18.60;99.90
23259;DHT22;11798;51.528;7.240;2022-08-19T00:44:10;18.60;99.90
23259;DHT22;11798;51.528;7.240;2022-08-19T00:46:38;18.60;99.90
23259;DHT22;11798;51.528;7.240;2022-08-19T00:49:24;18.60;99.90
23259;DHT22;11798;51.528;7.240;2022-08-19T00:51:55;18.50;99.90
23259;DHT22;11798;51.528;7.240;2022-08-19T00:54:22;18.50;99.90
23259;DHT22;11798;51.528;7.240;2022-08-19T00:56:49;18.50;99.90
23259;DHT22;11798;51.528;7.240;2022-08-19T00:59:16;18.50;99.90
23259;DHT22;11798;51.528;7.240;2022-08-19T01:01:43;18.50;99.90
23259;DHT22;11798;51.528;7.240;2022-08-19T01:04:09;18.50;99.90
23259;DHT22;11798;51.528;7.240;2022-08-19T01:06:39;18.40;99.90
23259;DHT22;11798;51.528;7.240;2022-08-19T01:09:07;18.40;99.90
23259;DHT22;11798;51.528;7.240;2022-08-19T01:11:35;18.40;99.90
23259;DHT22;11798;51.528;7.240;2022-08-19T01:14:01;18.40;99.90
23259;DHT22;11798;51.528;7.240;2022-08-19T01:16:27;18.30;99.90
23259;DHT22;11798;51.528;7.240;2022-08-19T01:18:54;18.30;99.90
23259;DHT22;11798;51.528;7.240;2022-08-19T01:23:53;18.30;99.90
23259;DHT22;11798;51.528;7.240;2022-08-19T01:26:21;18.30;99.90
23259;DHT22;11798;51.528;7.240;2022-08-19T01:28:49;18.30;99.90
23259;DHT22;11798;51.528;7.240;2022-08-19T01:31:19;18.40;99.90
23259;DHT22;11798;51.528;7.240;2022-08-19T01:33:47;18.30;99.90
23259;DHT22;11798;51.528;7.240;2022-08-19T01:36:20;18.30;99.90
23259;DHT22;11798;51.528;7.240;2022-08-19T01:38:47;18.30;99.90
23259;DHT22;11798;51.528;7.240;2022-08-19T01:41:13;18.30;99.90
23259;DHT22;11798;51.528;7.240;2022-08-19T01:43:40;18.30;99.90
23259;DHT22;11798;51.528;7.240;2022-08-19T01:46:06;18.20;99.90
23259;DHT22;11798;51.528;7.240;2022-08-19T01:48:38;18.20;99.90
23259;DHT22;11798;51.528;7.240;2022-08-19T01:51:05;18.20;99.90
23259;DHT22;11798;51.528;7.240;2022-08-19T01:53:31;18.20;99.90
23259;DHT22;11798;51.528;7.240;2022-08-19T01:55:57;18.10;99.90
23259;DHT22;11798;51.528;7.240;2022-08-19T01:58:29;18.20;99.90
23259;DHT22;11798;51.528;7.240;2022-08-19T02:00:56;18.20;99.90
23259;DHT22;11798;51.528;7.240;2022-08-19T02:03:22;18.10;99.90
23259;DHT22;11798;51.528;7.240;2022-08-19T02:05:53;18.10;99.90
23259;DHT22;11798;51.528;7.240;2022-08-19T02:08:18;18.00;99.90
23259;DHT22;11798;51.528;7.240;2022-08-19T02:10:44;18.00;99.90
23259;DHT22;11798;51.528;7.240;2022-08-19T02:13:11;18.00;99.90
23259;DHT22;11798;51.528;7.240;2022-08-19T02:15:38;18.00;99.90
23259;DHT22;11798;51.528;7.240;2022-08-19T02:18:03;18.00;99.90
23259;DHT22;11798;51.528;7.240;2022-08-19T02:20:29;18.00;99.90
23259;DHT22;11798;51.528;7.240;2022-08-19T02:22:55;18.00;99.90
23259;DHT22;11798;51.528;7.240;2022-08-19T02:25:20;18.00;99.90
23259;DHT22;11798;51.528;7.240;2022-08-19T02:27:46;18.00;99.90
23259;DHT22;11798;51.528;7.240;2022-08-19T02:30:15;18.00;99.90
23259;DHT22;11798;51.528;7.240;2022-08-19T02:32:41;18.00;99.90
23259;DHT22;11798;51.528;7.240;2022-08-19T02:35:08;18.00;99.90
23259;DHT22;11798;51.528;7.240;2022-08-19T02:37:34;17.90;99.90
23259;DHT22;11798;51.528;7.240;2022-08-19T02:40:18;17.90;99.90
23259;DHT22;11798;51.528;7.240;2022-08-19T02:42:44;17.90;99.90
23259;DHT22;11798;51.528;7.240;2022-08-19T02:45:11;17.90;99.90
23259;DHT22;11798;51.528;7.240;2022-08-19T02:47:37;17.90;99.90
23259;DHT22;11798;51.528;7.240;2022-08-19T02:50:04;17.90;99.90
23259;DHT22;11798;51.528;7.240;2022-08-19T02:52:31;17.80;99.90
23259;DHT22;11798;51.528;7.240;2022-08-19T02:54:57;17.80;99.90
23259;DHT22;11798;51.528;7.240;2022-08-19T02:57:23;17.80;99.90
23259;DHT22;11798;51.528;7.240;2022-08-19T02:59:49;17.80;99.90
23259;DHT22;11798;51.528;7.240;2022-08-19T03:02:15;17.80;99.90
23259;DHT22;11798;51.528;7.240;2022-08-19T03:04:41;17.70;99.90
23259;DHT22;11798;51.528;7.240;2022-08-19T03:07:08;17.70;99.90
23259;DHT22;11798;51.528;7.240;2022-08-19T03:09:37;17.70;99.90
23259;DHT22;11798;51.528;7.240;2022-08-19T03:12:03;17.70;99.90
23259;DHT22;11798;51.528;7.240;2022-08-19T03:14:36;17.70;99.90
23259;DHT22;11798;51.528;7.240;2022-08-19T03:17:02;17.70;99.90
23259;DHT22;11798;51.528;7.240;2022-08-19T03:19:28;17.60;99.90
23259;DHT22;11798;51.528;7.240;2022-08-19T03:21:54;17.60;99.90
23259;DHT22;11798;51.528;7.240;2022-08-19T03:24:21;17.60;99.90
23259;DHT22;11798;51.528;7.240;2022-08-19T03:26:52;17.60;99.90
23259;DHT22;11798;51.528;7.240;2022-08-19T03:29:23;17.60;99.90
23259;DHT22;11798;51.528;7.240;2022-08-19T03:31:49;17.60;99.90
23259;DHT22;11798;51.528;7.240;2022-08-19T03:34:23;17.60;99.90
23259;DHT22;11798;51.528;7.240;2022-08-19T03:36:52;17.60;99.90
23259;DHT22;11798;51.528;7.240;2022-08-19T03:39:19;17.60;99.90
23259;DHT22;11798;51.528;7.240;2022-08-19T03:41:47;17.60;99.90
23259;DHT22;11798;51.528;7.240;2022-08-19T03:44:18;17.60;99.90
23259;DHT22;11798;51.528;7.240;2022-08-19T03:46:57;17.50;99.90
23259;DHT22;11798;51.528;7.240;2022-08-19T03:49:31;17.50;99.90
23259;DHT22;11798;51.528;7.240;2022-08-19T03:51:59;17.60;99.90
23259;DHT22;11798;51.528;7.240;2022-08-19T03:54:28;17.50;99.90
23259;DHT22;11798;51.528;7.240;2022-08-19T03:56:55;17.40;99.90
23259;DHT22;11798;51.528;7.240;2022-08-19T03:59:24;17.40;99.90
23259;DHT22;11798;51.528;7.240;2022-08-19T04:01:53;17.40;99.90
23259;DHT22;11798;51.528;7.240;2022-08-19T04:04:19;17.40;99.90
23259;DHT22;11798;51.528;7.240;2022-08-19T04:06:45;17.40;99.90
23259;DHT22;11798;51.528;7.240;2022-08-19T04:09:12;17.40;99.90
23259;DHT22;11798;51.528;7.240;2022-08-19T04:11:46;17.40;99.90
23259;DHT22;11798;51.528;7.240;2022-08-19T04:14:16;17.40;99.90
23259;DHT22;11798;51.528;7.240;2022-08-19T04:16:42;17.50;99.90
23259;DHT22;11798;51.528;7.240;2022-08-19T04:19:09;17.40;99.90
23259;DHT22;11798;51.528;7.240;2022-08-19T04:21:35;17.40;99.90
23259;DHT22;11798;51.528;7.240;2022-08-19T04:24:02;17.40;99.90
23259;DHT22;11798;51.528;7.240;2022-08-19T04:26:34;17.40;99.90
23259;DHT22;11798;51.528;7.240;2022-08-19T04:29:01;17.40;99.90
23259;DHT22;11798;51.528;7.240;2022-08-19T04:31:30;17.40;99.90
23259;DHT22;11798;51.528;7.240;2022-08-19T04:33:58;17.40;99.90
23259;DHT22;11798;51.528;7.240;2022-08-19T04:36:27;17.40;99.90
23259;DHT22;11798;51.528;7.240;2022-08-19T04:38:55;17.40;99.90
23259;DHT22;11798;51.528;7.240;2022-08-19T04:41:21;17.40;99.90
23259;DHT22;11798;51.528;7.240;2022-08-19T04:44:05;17.40;99.90
23259;DHT22;11798;51.528;7.240;2022-08-19T04:46:32;17.40;99.90
23259;DHT22;11798;51.528;7.240;2022-08-19T04:48:59;17.40;99.90
23259;DHT22;11798;51.528;7.240;2022-08-19T04:51:26;17.50;99.90
23259;DHT22;11798;51.528;7.240;2022-08-19T04:53:52;17.50;99.90
23259;DHT22;11798;51.528;7.240;2022-08-19T04:56:19;17.50;99.90
23259;DHT22;11798;51.528;7.240;2022-08-19T04:58:47;17.60;99.90
23259;DHT22;11798;51.528;7.240;2022-08-19T05:01:17;17.60;99.90
23259;DHT22;11798;51.528;7.240;2022-08-19T05:03:43;17.60;99.90
23259;DHT22;11798;51.528;7.240;2022-08-19T05:06:12;17.70;99.90
23259;DHT22;11798;51.528;7.240;2022-08-19T05:08:39;17.70;99.90
23259;DHT22;11798;51.528;7.240;2022-08-19T05:11:17;17.80;99.90
23259;DHT22;11798;51.528;7.240;2022-08-19T05:13:44;17.80;99.90
23259;DHT22;11798;51.528;7.240;2022-08-19T05:16:12;17.90;99.90
23259;DHT22;11798;51.528;7.240;2022-08-19T05:18:39;17.90;99.90
23259;DHT22;11798;51.528;7.240;2022-08-19T05:21:25;18.00;99.90
23259;DHT22;11798;51.528;7.240;2022-08-19T05:24:10;18.00;99.90
23259;DHT22;11798;51.528;7.240;2022-08-19T05:26:37;18.00;99.90
23259;DHT22;11798;51.528;7.240;2022-08-19T05:29:04;18.10;99.90
23259;DHT22;11798;51.528;7.240;2022-08-19T05:31:31;18.00;99.90
23259;DHT22;11798;51.528;7.240;2022-08-19T05:33:57;18.10;99.90
23259;DHT22;11798;51.528;7.240;2022-08-19T05:36:28;18.10;99.90
23259;DHT22;11798;51.528;7.240;2022-08-19T05:38:54;18.20;99.90
23259;DHT22;11798;51.528;7.240;2022-08-19T05:41:21;18.20;99.90
23259;DHT22;11798;51.528;7.240;2022-08-19T05:43:55;18.30;99.90
23259;DHT22;11798;51.528;7.240;2022-08-19T05:46:21;18.30;99.90
23259;DHT22;11798;51.528;7.240;2022-08-19T05:48:47;18.40;99.90
23259;DHT22;11798;51.528;7.240;2022-08-19T05:51:14;18.40;99.90
23259;DHT22;11798;51.528;7.240;2022-08-19T05:53:41;18.50;99.90
23259;DHT22;11798;51.528;7.240;2022-08-19T05:56:13;18.60;99.90
23259;DHT22;11798;51.528;7.240;2022-08-19T05:58:41;18.60;99.90
23259;DHT22;11798;51.528;7.240;2022-08-19T06:01:13;18.70;99.90
23259;DHT22;11798;51.528;7.240;2022-08-19T06:03:40;18.80;99.90
23259;DHT22;11798;51.528;7.240;2022-08-19T06:06:07;19.00;99.90
23259;DHT22;11798;51.528;7.240;2022-08-19T06:08:35;19.10;99.90
23259;DHT22;11798;51.528;7.240;2022-08-19T06:11:22;19.10;99.90
23259;DHT22;11798;51.528;7.240;2022-08-19T06:13:51;19.10;99.90
23259;DHT22;11798;51.528;7.240;2022-08-19T06:16:18;19.20;99.90
23259;DHT22;11798;51.528;7.240;2022-08-19T06:18:46;19.20;99.90
23259;DHT22;11798;51.528;7.240;2022-08-19T06:21:11;19.30;99.90
23259;DHT22;11798;51.528;7.240;2022-08-19T06:23:37;19.40;99.90
23259;DHT22;11798;51.528;7.240;2022-08-19T06:26:05;19.50;99.90
23259;DHT22;11798;51.528;7.240;2022-08-19T06:28:30;19.40;99.90
23259;DHT22;11798;51.528;7.240;2022-08-19T06:30:58;19.50;99.90
23259;DHT22;11798;51.528;7.240;2022-08-19T06:33:23;19.70;99.90
23259;DHT22;11798;51.528;7.240;2022-08-19T06:35:49;19.70;99.90
23259;DHT22;11798;51.528;7.240;2022-08-19T06:38:15;19.80;99.90
23259;DHT22;11798;51.528;7.240;2022-08-19T06:40:40;19.80;99.90
23259;DHT22;11798;51.528;7.240;2022-08-19T06:43:06;19.90;99.90
23259;DHT22;11798;51.528;7.240;2022-08-19T06:45:32;20.00;99.90
23259;DHT22;11798;51.528;7.240;2022-08-19T06:47:57;20.00;99.90
23259;DHT22;11798;51.528;7.240;2022-08-19T06:50:23;20.00;99.90
23259;DHT22;11798;51.528;7.240;2022-08-19T06:52:49;20.10;99.90
23259;DHT22;11798;51.528;7.240;2022-08-19T06:55:15;20.10;99.90
23259;DHT22;11798;51.528;7.240;2022-08-19T06:57:41;20.20;99.90
23259;DHT22;11798;51.528;7.240;2022-08-19T07:00:08;20.30;99.90
23259;DHT22;11798;51.528;7.240;2022-08-19T07:02:39;20.30;99.90
23259;DHT22;11798;51.528;7.240;2022-08-19T07:05:05;20.40;99.90
23259;DHT22;11798;51.528;7.240;2022-08-19T07:07:31;20.40;99.90
23259;DHT22;11798;51.528;7.240;2022-08-19T07:09:57;20.30;99.90
23259;DHT22;11798;51.528;7.240;2022-08-19T07:12:22;20.30;99.90
23259;DHT22;11798;51.528;7.240;2022-08-19T07:14:48;20.40;99.90
23259;DHT22;11798;51.528;7.240;2022-08-19T07:17:14;20.40;99.90
23259;DHT22;11798;51.528;7.240;2022-08-19T07:19:41;20.40;99.90
23259;DHT22;11798;51.528;7.240;2022-08-19T07:22:09;20.40;99.90
23259;DHT22;11798;51.528;7.240;2022-08-19T07:24:35;20.40;99.90
23259;DHT22;11798;51.528;7.240;2022-08-19T07:27:03;20.50;99.90
23259;DHT22;11798;51.528;7.240;2022-08-19T07:29:32;20.40;99.90
23259;DHT22;11798;51.528;7.240;2022-08-19T07:32:00;20.50;99.90
23259;DHT22;11798;51.528;7.240;2022-08-19T07:34:28;20.50;99.90
23259;DHT22;11798;51.528;7.240;2022-08-19T07:36:55;20.60;99.90
23259;DHT22;11798;51.528;7.240;2022-08-19T07:39:29;20.50;99.90
23259;DHT22;11798;51.528;7.240;2022-08-19T07:41:56;20.60;99.90
23259;DHT22;11798;51.528;7.240;2022-08-19T07:44:23;20.60;99.90
23259;DHT22;11798;51.528;7.240;2022-08-19T07:46:53;20.60;99.90
23259;DHT22;11798;51.528;7.240;2022-08-19T07:49:22;20.70;99.90
23259;DHT22;11798;51.528;7.240;2022-08-19T07:51:54;20.80;99.90
23259;DHT22;11798;51.528;7.240;2022-08-19T07:54:23;20.90;99.90
23259;DHT22;11798;51.528;7.240;2022-08-19T07:56:49;21.00;99.90
23259;DHT22;11798;51.528;7.240;2022-08-19T07:59:16;21.10;99.90
23259;DHT22;11798;51.528;7.240;2022-08-19T08:01:42;21.10;99.90
23259;DHT22;11798;51.528;7.240;2022-08-19T08:04:08;21.20;99.90
23259;DHT22;11798;51.528;7.240;2022-08-19T08:06:53;21.20;99.90
23259;DHT22;11798;51.528;7.240;2022-08-19T08:09:39;21.30;99.90
23259;DHT22;11798;51.528;7.240;2022-08-19T08:12:09;21.30;99.90
23259;DHT22;11798;51.528;7.240;2022-08-19T08:14:51;21.40;99.90
23259;DHT22;11798;51.528;7.240;2022-08-19T08:17:22;21.50;99.90
23259;DHT22;11798;51.528;7.240;2022-08-19T08:19:48;21.70;99.90
23259;DHT22;11798;51.528;7.240;2022-08-19T08:22:17;21.80;99.90
23259;DHT22;11798;51.528;7.240;2022-08-19T08:25:08;21.80;99.90
23259;DHT22;11798;51.528;7.240;2022-08-19T08:27:39;21.90;99.90
23259;DHT22;11798;51.528;7.240;2022-08-19T08:30:12;22.00;99.90
23259;DHT22;11798;51.528;7.240;2022-08-19T08:32:39;22.10;99.90
23259;DHT22;11798;51.528;7.240;2022-08-19T08:35:07;22.10;99.90
23259;DHT22;11798;51.528;7.240;2022-08-19T08:37:33;22.30;99.90
23259;DHT22;11798;51.528;7.240;2022-08-19T08:40:01;22.40;99.90
23259;DHT22;11798;51.528;7.240;2022-08-19T08:42:35;22.50;99.90
23259;DHT22;11798;51.528;7.240;2022-08-19T08:45:13;22.60;99.90
23259;DHT22;11798;51.528;7.240;2022-08-19T08:47:45;22.70;99.90
23259;DHT22;11798;51.528;7.240;2022-08-19T08:50:27;22.90;99.90
23259;DHT22;11798;51.528;7.240;2022-08-19T08:52:56;23.00;99.90
23259;DHT22;11798;51.528;7.240;2022-08-19T08:55:27;23.10;99.90
23259;DHT22;11798;51.528;7.240;2022-08-19T08:57:59;23.20;99.90
23259;DHT22;11798;51.528;7.240;2022-08-19T09:00:33;23.30;99.90
23259;DHT22;11798;51.528;7.240;2022-08-19T09:03:00;23.30;99.90
23259;DHT22;11798;51.528;7.240;2022-08-19T09:05:59;23.30;99.90
23259;DHT22;11798;51.528;7.240;2022-08-19T09:09:24;23.40;99.90
23259;DHT22;11798;51.528;7.240;2022-08-19T09:14:37;23.60;99.90
23259;DHT22;11798;51.528;7.240;2022-08-19T09:17:07;23.90;99.90
23259;DHT22;11798;51.528;7.240;2022-08-19T09:22:37;24.40;99.90
23259;DHT22;11798;51.528;7.240;2022-08-19T09:25:04;24.40;99.90
23259;DHT22;11798;51.528;7.240;2022-08-19T09:27:30;24.50;99.90
23259;DHT22;11798;51.528;7.240;2022-08-19T09:29:57;24.60;99.90
23259;DHT22;11798;51.528;7.240;2022-08-19T09:32:23;24.60;99.90
23259;DHT22;11798;51.528;7.240;2022-08-19T09:34:49;24.50;99.90
23259;DHT22;11798;51.528;7.240;2022-08-19T09:37:15;24.40;99.90
23259;DHT22;11798;51.528;7.240;2022-08-19T09:39:41;24.40;99.90
23259;DHT22;11798;51.528;7.240;2022-08-19T09:42:08;24.40;99.90
23259;DHT22;11798;51.528;7.240;2022-08-19T09:44:39;24.30;99.90
23259;DHT22;11798;51.528;7.240;2022-08-19T09:47:06;24.50;99.90
23259;DHT22;11798;51.528;7.240;2022-08-19T09:49:32;24.70;99.90
23259;DHT22;11798;51.528;7.240;2022-08-19T09:51:59;24.80;99.90
23259;DHT22;11798;51.528;7.240;2022-08-19T09:54:25;24.90;99.90
23259;DHT22;11798;51.528;7.240;2022-08-19T09:56:52;24.90;99.90
23259;DHT22;11798;51.528;7.240;2022-08-19T09:59:17;24.80;99.90
23259;DHT22;11798;51.528;7.240;2022-08-19T10:01:43;24.90;99.90
23259;DHT22;11798;51.528;7.240;2022-08-19T10:04:09;24.70;99.90
23259;DHT22;11798;51.528;7.240;2022-08-19T10:06:37;24.60;99.90
23259;DHT22;11798;51.528;7.240;2022-08-19T10:09:04;24.50;99.90
23259;DHT22;11798;51.528;7.240;2022-08-19T10:11:32;24.50;99.90
23259;DHT22;11798;51.528;7.240;2022-08-19T10:13:58;24.30;99.90
23259;DHT22;11798;51.528;7.240;2022-08-19T10:16:25;24.50;99.90
23259;DHT22;11798;51.528;7.240;2022-08-19T10:18:52;24.60;99.90
23259;DHT22;11798;51.528;7.240;2022-08-19T10:21:23;24.50;99.90
23259;DHT22;11798;51.528;7.240;2022-08-19T10:23:51;24.50;99.90
23259;DHT22;11798;51.528;7.240;2022-08-19T10:26:20;24.60;99.90
23259;DHT22;11798;51.528;7.240;2022-08-19T10:28:47;24.70;99.90
23259;DHT22;11798;51.528;7.240;2022-08-19T10:31:16;24.80;99.90
23259;DHT22;11798;51.528;7.240;2022-08-19T10:33:43;25.00;99.90
23259;DHT22;11798;51.528;7.240;2022-08-19T10:36:16;25.10;99.90
23259;DHT22;11798;51.528;7.240;2022-08-19T10:38:43;25.10;99.90
23259;DHT22;11798;51.528;7.240;2022-08-19T10:41:19;25.10;99.90
23259;DHT22;11798;51.528;7.240;2022-08-19T10:43:45;25.10;99.90
23259;DHT22;11798;51.528;7.240;2022-08-19T10:46:15;25.20;99.90
23259;DHT22;11798;51.528;7.240;2022-08-19T10:48:42;25.40;99.90
23259;DHT22;11798;51.528;7.240;2022-08-19T10:51:08;25.30;99.90
23259;DHT22;11798;51.528;7.240;2022-08-19T10:53:52;25.50;99.90
23259;DHT22;11798;51.528;7.240;2022-08-19T10:56:18;25.50;99.90
23259;DHT22;11798;51.528;7.240;2022-08-19T10:59:03;25.60;99.90
23259;DHT22;11798;51.528;7.240;2022-08-19T11:01:30;25.70;99.90
23259;DHT22;11798;51.528;7.240;2022-08-19T11:03:57;25.70;99.90
23259;DHT22;11798;51.528;7.240;2022-08-19T11:06:23;25.80;99.90
23259;DHT22;11798;51.528;7.240;2022-08-19T11:08:51;25.80;99.90
23259;DHT22;11798;51.528;7.240;2022-08-19T11:11:17;25.90;99.90
23259;DHT22;11798;51.528;7.240;2022-08-19T11:13:43;25.80;99.90
23259;DHT22;11798;51.528;7.240;2022-08-19T11:16:17;25.80;99.90
23259;DHT22;11798;51.528;7.240;2022-08-19T11:18:46;25.90;99.90
23259;DHT22;11798;51.528;7.240;2022-08-19T11:21:15;25.80;99.90
23259;DHT22;11798;51.528;7.240;2022-08-19T11:23:46;25.70;99.90
23259;DHT22;11798;51.528;7.240;2022-08-19T11:26:13;25.70;99.90
23259;DHT22;11798;51.528;7.240;2022-08-19T11:28:39;25.70;99.90
23259;DHT22;11798;51.528;7.240;2022-08-19T11:31:16;25.60;99.90
23259;DHT22;11798;51.528;7.240;2022-08-19T11:33:43;25.50;99.90
23259;DHT22;11798;51.528;7.240;2022-08-19T11:36:08;25.30;99.90
23259;DHT22;11798;51.528;7.240;2022-08-19T11:38:35;25.40;99.90
23259;DHT22;11798;51.528;7.240;2022-08-19T11:41:05;25.30;99.90
23259;DHT22;11798;51.528;7.240;2022-08-19T11:43:33;25.30;99.90
23259;DHT22;11798;51.528;7.240;2022-08-19T11:45:58;25.40;99.90
23259;DHT22;11798;51.528;7.240;2022-08-19T11:48:25;25.40;99.90
23259;DHT22;11798;51.528;7.240;2022-08-19T11:50:52;25.50;99.90
23259;DHT22;11798;51.528;7.240;2022-08-19T11:53:19;25.70;99.90
23259;DHT22;11798;51.528;7.240;2022-08-19T11:55:46;25.70;99.90
23259;DHT22;11798;51.528;7.240;2022-08-19T11:58:13;25.80;99.90
23259;DHT22;11798;51.528;7.240;2022-08-19T12:00:40;25.90;99.90
23259;DHT22;11798;51.528;7.240;2022-08-19T12:03:05;26.00;99.90
23259;DHT22;11798;51.528;7.240;2022-08-19T12:05:31;26.00;99.90
23259;DHT22;11798;51.528;7.240;2022-08-19T12:07:57;26.10;99.90
23259;DHT22;11798;51.528;7.240;2022-08-19T12:10:23;26.00;99.90
23259;DHT22;11798;51.528;7.240;2022-08-19T12:12:49;25.90;99.90
23259;DHT22;11798;51.528;7.240;2022-08-19T12:15:15;25.90;99.90
23259;DHT22;11798;51.528;7.240;2022-08-19T12:17:41;25.90;99.90
23259;DHT22;11798;51.528;7.240;2022-08-19T12:20:09;25.60;99.90
23259;DHT22;11798;51.528;7.240;2022-08-19T12:22:36;25.50;99.90
23259;DHT22;11798;51.528;7.240;2022-08-19T12:25:03;25.60;99.90
23259;DHT22;11798;51.528;7.240;2022-08-19T12:27:29;25.70;99.90
23259;DHT22;11798;51.528;7.240;2022-08-19T12:29:54;25.70;99.90
23259;DHT22;11798;51.528;7.240;2022-08-19T12:32:20;25.80;99.90
23259;DHT22;11798;51.528;7.240;2022-08-19T12:34:46;25.70;99.90
23259;DHT22;11798;51.528;7.240;2022-08-19T12:37:12;25.60;99.90
23259;DHT22;11798;51.528;7.240;2022-08-19T12:39:40;25.70;99.90
23259;DHT22;11798;51.528;7.240;2022-08-19T12:42:08;25.80;99.90
23259;DHT22;11798;51.528;7.240;2022-08-19T12:44:35;25.80;99.90
23259;DHT22;11798;51.528;7.240;2022-08-19T12:47:01;25.90;99.90
23259;DHT22;11798;51.528;7.240;2022-08-19T12:49:29;26.10;99.90
23259;DHT22;11798;51.528;7.240;2022-08-19T12:51:54;26.10;99.90
23259;DHT22;11798;51.528;7.240;2022-08-19T12:54:20;26.00;99.90
23259;DHT22;11798;51.528;7.240;2022-08-19T12:56:46;26.00;99.90
23259;DHT22;11798;51.528;7.240;2022-08-19T12:59:11;26.00;99.90
23259;DHT22;11798;51.528;7.240;2022-08-19T13:01:37;26.00;99.90
23259;DHT22;11798;51.528;7.240;2022-08-19T13:04:03;26.20;99.90
23259;DHT22;11798;51.528;7.240;2022-08-19T13:06:29;26.20;99.90
23259;DHT22;11798;51.528;7.240;2022-08-19T13:08:55;26.20;99.90
23259;DHT22;11798;51.528;7.240;2022-08-19T13:11:22;26.10;99.90
23259;DHT22;11798;51.528;7.240;2022-08-19T13:13:50;26.20;99.90
23259;DHT22;11798;51.528;7.240;2022-08-19T13:16:17;26.40;99.90
23259;DHT22;11798;51.528;7.240;2022-08-19T13:18:45;26.50;99.90
23259;DHT22;11798;51.528;7.240;2022-08-19T13:21:13;26.50;99.90
23259;DHT22;11798;51.528;7.240;2022-08-19T13:23:39;26.60;99.90
23259;DHT22;11798;51.528;7.240;2022-08-19T13:26:07;26.60;99.90
23259;DHT22;11798;51.528;7.240;2022-08-19T13:28:34;26.60;99.90
23259;DHT22;11798;51.528;7.240;2022-08-19T13:31:21;26.50;99.90
23259;DHT22;11798;51.528;7.240;2022-08-19T13:34:06;26.50;99.90
23259;DHT22;11798;51.528;7.240;2022-08-19T13:36:35;26.50;99.90
23259;DHT22;11798;51.528;7.240;2022-08-19T13:39:02;26.40;99.90
23259;DHT22;11798;51.528;7.240;2022-08-19T13:41:28;26.30;99.90
23259;DHT22;11798;51.528;7.240;2022-08-19T13:43:53;26.10;99.90
23259;DHT22;11798;51.528;7.240;2022-08-19T13:46:20;26.10;99.90
23259;DHT22;11798;51.528;7.240;2022-08-19T13:48:46;26.20;99.90
23259;DHT22;11798;51.528;7.240;2022-08-19T13:51:14;26.30;99.90
23259;DHT22;11798;51.528;7.240;2022-08-19T13:53:42;26.30;99.90
23259;DHT22;11798;51.528;7.240;2022-08-19T13:56:10;26.20;99.90
23259;DHT22;11798;51.528;7.240;2022-08-19T13:58:37;26.20;99.90
23259;DHT22;11798;51.528;7.240;2022-08-19T14:01:04;26.10;99.90
23259;DHT22;11798;51.528;7.240;2022-08-19T14:03:31;26.10;99.90
23259;DHT22;11798;51.528;7.240;2022-08-19T14:05:57;26.20;99.90
23259;DHT22;11798;51.528;7.240;2022-08-19T14:08:22;26.20;99.90
23259;DHT22;11798;51.528;7.240;2022-08-19T14:10:48;26.20;99.90
23259;DHT22;11798;51.528;7.240;2022-08-19T14:13:18;26.30;99.90
23259;DHT22;11798;51.528;7.240;2022-08-19T14:15:44;26.40;99.90
23259;DHT22;11798;51.528;7.240;2022-08-19T14:18:10;26.40;99.90
23259;DHT22;11798;51.528;7.240;2022-08-19T14:20:36;26.40;99.90
23259;DHT22;11798;51.528;7.240;2022-08-19T14:23:02;26.50;99.90
23259;DHT22;11798;51.528;7.240;2022-08-19T14:25:29;26.50;99.90
23259;DHT22;11798;51.528;7.240;2022-08-19T14:27:56;26.40;99.90
23259;DHT22;11798;51.528;7.240;2022-08-19T14:30:29;26.50;99.90
23259;DHT22;11798;51.528;7.240;2022-08-19T14:32:57;26.60;99.90
23259;DHT22;11798;51.528;7.240;2022-08-19T14:35:24;26.50;99.90
23259;DHT22;11798;51.528;7.240;2022-08-19T14:37:50;26.50;99.90
23259;DHT22;11798;51.528;7.240;2022-08-19T14:40:23;26.60;99.90
23259;DHT22;11798;51.528;7.240;2022-08-19T14:43:02;26.70;99.90
23259;DHT22;11798;51.528;7.240;2022-08-19T14:45:34;26.80;99.90
23259;DHT22;11798;51.528;7.240;2022-08-19T14:48:00;26.80;99.90
23259;DHT22;11798;51.528;7.240;2022-08-19T14:50:26;26.80;99.90
23259;DHT22;11798;51.528;7.240;2022-08-19T14:53:01;26.80;99.90
23259;DHT22;11798;51.528;7.240;2022-08-19T14:55:28;27.00;99.90
23259;DHT22;11798;51.528;7.240;2022-08-19T14:57:54;27.30;99.90
23259;DHT22;11798;51.528;7.240;2022-08-19T15:00:20;27.50;99.90
23259;DHT22;11798;51.528;7.240;2022-08-19T15:02:46;27.60;99.90
23259;DHT22;11798;51.528;7.240;2022-08-19T15:05:12;27.60;99.90
23259;DHT22;11798;51.528;7.240;2022-08-19T15:07:38;27.50;99.90
23259;DHT22;11798;51.528;7.240;2022-08-19T15:10:05;27.40;99.90
23259;DHT22;11798;51.528;7.240;2022-08-19T15:12:33;27.70;99.90
23259;DHT22;11798;51.528;7.240;2022-08-19T15:14:59;27.60;99.90
23259;DHT22;11798;51.528;7.240;2022-08-19T15:17:25;27.60;99.90
23259;DHT22;11798;51.528;7.240;2022-08-19T15:19:51;27.60;99.90
23259;DHT22;11798;51.528;7.240;2022-08-19T15:22:16;27.50;99.90
23259;DHT22;11798;51.528;7.240;2022-08-19T15:24:42;27.60;99.90
23259;DHT22;11798;51.528;7.240;2022-08-19T15:27:11;27.60;99.90
23259;DHT22;11798;51.528;7.240;2022-08-19T15:29:37;27.50;99.90
23259;DHT22;11798;51.528;7.240;2022-08-19T15:32:03;27.60;99.90
23259;DHT22;11798;51.528;7.240;2022-08-19T15:34:28;27.70;99.90
23259;DHT22;11798;51.528;7.240;2022-08-19T15:36:56;27.80;99.90
23259;DHT22;11798;51.528;7.240;2022-08-19T15:39:23;27.80;99.90
23259;DHT22;11798;51.528;7.240;2022-08-19T15:41:49;28.10;99.90
23259;DHT22;11798;51.528;7.240;2022-08-19T15:44:17;28.00;99.90